Wabash, IN

5:42 AM EDT on August 28, 2015 (GMT -0400)
N9UAX - King St. Weather | | Change Station
CLOSE
Current Station
Personal Weather Station
Location: Wabash, IN
Elevation: 771 ft
Nearby Weather Stations

Elev 771 ft 40.78 °N, 85.84 °W | Updated 2 seconds ago

Clear
Clear
55.0 °F
Feels Like 55.0 °F
N
-
Wind Variable Wind from North
Gusts 0.0 mph

Today
High -- | Low -- °F
--% Chance of Precip.
Yesterday
High -- | Low -- °F
Precip. -- in
7:06 AM 8:22 PM
Waxing Gibbous, 97% visible
Pressure 30.15 in
Visibility 10.0 miles
Clouds Clear
Dew Point 51 °F
Humidity 85%
Rainfall 0.00 in
Snow Depth Not available.
UV 0 out of 12
Pollen 9.60 out of 12
Air Quality Not available.
Flu Activity Not available.
METAR KGUS 280858Z AUTO 12005KT 10SM CLR 14/12 A3015 RMK AO2 SLP210 T01410124 53002
Pressure 30.15 in
Visibility 10.0 miles
Clouds Clear
Dew Point 51 °F
Humidity 85%
Rainfall 0.00 in
Snow Depth Not available.
UV 0 out of 12
Pollen 9.60 out of 12
Air Quality Not available.
Flu Activity Not available.
METAR KGUS 280858Z AUTO 12005KT 10SM CLR 14/12 A3015 RMK AO2 SLP210 T01410124 53002

10-Day Weather Forecast

×

Almanac

Astronomy

Aug. 28, 2015 Rise Set
Actual Time
Civil Twilight
Nautical Twilight
Astronomical Twilight
Moon
Length of Visible Light
Length of Day
Tomorrow will be .
, % of the Moon is Illuminated

Today's Extremes

State Highs State Lows

Community

WunderPhotos

Upload Photos

1,850,352 photos uploaded!

WunderBlogs® & News

Nearby

Air Quality

  Air Quality AQ Index Pollutant
Not available.

Snow Depth

Station Depth Elevation

Earthquake Activity

City Distance Mag. Time & Date
Minimum magnitude displayed is 2.5.

Coastal Water Temperatures

Place Temperature

Stations

Nearby Weather Stations

Station Location Temp. Windchill Dew Point Humidity Wind Precip. Elev Updated Type